Time;durP1;ratioP1;P1;durP2;ratioP2;P2;SDS_P1;SDS_P2;PMS_P1;PMS_P2;Temp;Humidity;BMP_temperature;BMP_pressure;BME280_temperature;BME280_humidity;BME280_pressure;Samples;Min_cycle;Max_cycle;Signal;HPM_P1;HPM_P2
2022/03/14 00:00:09;;;;;;;52.83;23.17;;;-3.80;91.50;;;;;;4156573;28;20034;-47
2022/03/14 00:02:10;;;;;;;51.30;22.45;;;-3.80;92.00;;;;;;4157590;28;20228;-63
2022/03/14 00:04:11;;;;;;;58.17;23.83;;;-3.80;92.00;;;;;;4156472;28;20072;-78
2022/03/14 00:06:12;;;;;;;69.50;27.25;;;-3.80;91.80;;;;;;4157522;28;20087;-57
2022/03/14 00:08:13;;;;;;;59.88;24.65;;;-3.70;92.20;;;;;;4156688;28;20030;-59
2022/03/14 00:10:16;;;;;;;65.07;24.58;;;-3.80;92.10;;;;;;4157002;28;20061;-43
2022/03/14 00:12:19;;;;;;;56.10;24.67;;;-3.70;92.20;;;;;;4156580;28;20037;-47
2022/03/14 00:14:22;;;;;;;57.45;24.83;;;-3.80;92.30;;;;;;4157313;28;20034;-56
2022/03/14 00:16:25;;;;;;;55.22;24.80;;;-3.80;92.40;;;;;;4156003;28;20520;-58
2022/03/14 00:18:27;;;;;;;60.08;22.90;;;-3.80;92.40;;;;;;4160704;28;20025;-49
2022/03/14 00:20:28;;;;;;;51.33;24.77;;;-3.80;92.20;;;;;;4159420;28;20037;-47
2022/03/14 00:22:31;;;;;;;52.05;23.70;;;-3.80;92.30;;;;;;4160167;28;20022;-58
2022/03/14 00:24:32;;;;;;;60.63;25.63;;;-3.80;92.80;;;;;;4158036;28;20049;-72
2022/03/14 00:26:34;;;;;;;56.53;24.42;;;-3.80;93.00;;;;;;4159708;28;20084;-54
2022/03/14 00:28:35;;;;;;;62.80;25.25;;;-3.90;93.70;;;;;;4141888;28;20096;-55
2022/03/14 00:30:36;;;;;;;59.90;24.08;;;-4.00;93.30;;;;;;4159528;28;20083;-60
2022/03/14 00:32:39;;;;;;;53.15;23.88;;;-4.00;93.10;;;;;;4159610;28;20037;-46
2022/03/14 00:34:40;;;;;;;56.80;24.73;;;-4.10;93.80;;;;;;4159537;28;20084;-50
2022/03/14 00:36:42;;;;;;;57.22;25.80;;;-4.10;93.40;;;;;;4160094;28;20087;-53
2022/03/14 00:38:44;;;;;;;49.75;23.85;;;-4.20;94.10;;;;;;4159494;28;20823;-67
2022/03/14 00:40:45;;;;;;;51.38;21.92;;;-4.20;93.80;;;;;;4159794;28;21190;-43
2022/03/14 00:42:48;;;;;;;59.08;23.05;;;-4.20;93.50;;;;;;4158496;28;20021;-52
2022/03/14 00:44:50;;;;;;;58.38;22.83;;;-4.20;93.70;;;;;;4159337;28;20029;-63
2022/03/14 00:46:51;;;;;;;53.83;22.90;;;-4.10;93.50;;;;;;4158801;28;20037;-49
2022/03/14 00:48:55;;;;;;;56.88;23.77;;;-4.10;94.20;;;;;;4160069;28;20080;-61
2022/03/14 00:50:56;;;;;;;58.10;24.63;;;-4.10;93.50;;;;;;4158924;28;20874;-58
2022/03/14 00:52:57;;;;;;;59.05;24.83;;;-4.10;93.60;;;;;;4161129;28;20099;-51
2022/03/14 00:54:58;;;;;;;57.67;25.05;;;-4.10;94.00;;;;;;4159155;28;20041;-60
2022/03/14 00:57:00;;;;;;;62.08;26.58;;;-4.10;93.70;;;;;;4160214;28;20033;-61
2022/03/14 00:59:01;;;;;;;58.90;25.02;;;-4.10;93.70;;;;;;4158309;28;20429;-60
2022/03/14 01:01:03;;;;;;;61.25;27.02;;;-4.10;94.10;;;;;;4160070;28;20095;-53
2022/03/14 01:03:05;;;;;;;58.80;23.48;;;-4.10;94.20;;;;;;4159042;28;20025;-58
2022/03/14 01:05:06;;;;;;;59.03;25.50;;;-4.10;94.30;;;;;;4159621;28;20843;-66
2022/03/14 01:07:07;;;;;;;73.82;27.25;;;-4.10;93.60;;;;;;4158760;28;20033;-58
2022/03/14 01:09:11;;;;;;;59.15;26.33;;;-4.00;94.40;;;;;;4158910;28;20080;-59
2022/03/14 01:11:12;;;;;;;63.75;26.85;;;-4.10;94.00;;;;;;4159067;28;20041;-51
2022/03/14 01:13:14;;;;;;;63.83;26.02;;;-4.00;94.20;;;;;;4158217;28;20030;-65
2022/03/14 01:15:15;;;;;;;62.28;26.80;;;-4.10;93.90;;;;;;4159854;28;20079;-65
2022/03/14 01:17:16;;;;;;;61.67;27.02;;;-4.00;94.30;;;;;;4157987;28;20050;-50
2022/03/14 01:19:18;;;;;;;54.88;24.42;;;-4.00;94.20;;;;;;4159559;28;20436;-61
2022/03/14 01:21:19;;;;;;;57.67;24.42;;;-4.10;94.60;;;;;;4158475;28;20033;-43
2022/03/14 01:23:20;;;;;;;48.53;23.95;;;-4.10;93.90;;;;;;4142203;28;20037;-50
2022/03/14 01:25:24;;;;;;;65.50;25.75;;;-4.10;94.20;;;;;;4158059;28;20033;-50
2022/03/14 01:27:25;;;;;;;61.03;25.92;;;-4.20;94.30;;;;;;4158901;28;20029;-60
2022/03/14 01:29:26;;;;;;;58.90;24.27;;;-4.20;94.40;;;;;;4157803;28;20163;-66
2022/03/14 01:31:28;;;;;;;55.53;26.33;;;-4.20;95.00;;;;;;4159807;28;20471;-41
2022/03/14 01:33:29;;;;;;;58.05;26.80;;;-4.30;94.90;;;;;;4158640;28;20052;-49
2022/03/14 01:35:30;;;;;;;59.22;24.63;;;-4.30;94.70;;;;;;4157810;28;20091;-60
2022/03/14 01:37:32;;;;;;;55.50;26.23;;;-4.30;94.70;;;;;;4159302;28;20083;-53
2022/03/14 01:39:33;;;;;;;54.42;24.90;;;-4.30;94.40;;;;;;4158327;28;20064;-44
2022/03/14 01:41:34;;;;;;;57.70;23.70;;;-4.20;94.70;;;;;;4159189;28;20041;-51
2022/03/14 01:43:36;;;;;;;51.47;25.08;;;-4.30;94.60;;;;;;4158167;28;20481;-53
2022/03/14 01:45:37;;;;;;;50.80;21.88;;;-4.30;94.70;;;;;;4159363;28;20575;-56
2022/03/14 01:47:39;;;;;;;51.45;20.02;;;-4.30;94.90;;;;;;4157833;28;20025;-65
2022/03/14 01:49:43;;;;;;;49.42;20.88;;;-4.40;95.20;;;;;;4159098;28;20033;-58
2022/03/14 01:51:45;;;;;;;42.88;18.70;;;-4.40;95.00;;;;;;4157835;28;20091;-57
2022/03/14 01:53:47;;;;;;;44.20;20.15;;;-4.50;95.20;;;;;;4158936;28;20033;-62
2022/03/14 01:55:48;;;;;;;37.67;17.52;;;-4.60;95.60;;;;;;4157329;28;20034;-46
2022/03/14 01:57:50;;;;;;;35.65;16.30;;;-4.70;95.90;;;;;;4159093;28;20022;-56
2022/03/14 01:59:51;;;;;;;43.47;15.95;;;-4.70;96.50;;;;;;4157604;28;20030;-60
2022/03/14 02:01:53;;;;;;;35.20;15.27;;;-4.70;96.70;;;;;;4158526;28;20363;-45
2022/03/14 02:03:54;;;;;;;42.38;18.45;;;-4.70;96.60;;;;;;4157752;28;20029;-67
2022/03/14 02:05:55;;;;;;;41.05;16.95;;;-4.80;96.80;;;;;;4157639;28;20030;-63
2022/03/14 02:07:57;;;;;;;42.28;17.02;;;-4.80;97.50;;;;;;4157964;28;20099;-58
2022/03/14 02:09:58;;;;;;;40.35;18.00;;;-4.90;97.20;;;;;;4140190;28;20045;-44
2022/03/14 02:12:00;;;;;;;35.00;16.80;;;-4.90;97.40;;;;;;4158601;28;20025;-53
2022/03/14 02:14:01;;;;;;;42.35;18.95;;;-4.90;97.80;;;;;;4157779;28;20083;-47
2022/03/14 02:16:02;;;;;;;40.10;18.67;;;-5.00;98.10;;;;;;4140969;28;20081;-50
2022/03/14 02:18:04;;;;;;;40.55;19.30;;;-5.10;98.60;;;;;;4174055;28;20017;-48
2022/03/14 02:20:06;;;;;;;40.25;19.42;;;-5.20;99.40;;;;;;4175459;28;20025;-60
2022/03/14 02:22:13;;;;;;;51.72;21.33;;;-5.40;99.10;;;;;;4173893;28;20619;-57
2022/03/14 02:24:14;;;;;;;46.17;19.35;;;-5.40;99.00;;;;;;4175353;28;20082;-62
2022/03/14 02:26:18;;;;;;;43.20;18.50;;;-5.30;99.40;;;;;;4173920;28;20078;-61
2022/03/14 02:28:22;;;;;;;47.13;18.13;;;-5.20;99.80;;;;;;4175193;28;20071;-62
2022/03/14 02:30:24;;;;;;;40.63;18.15;;;-5.20;99.80;;;;;;4173915;28;20485;-51
2022/03/14 02:32:25;;;;;;;45.63;19.98;;;-5.20;99.80;;;;;;4175242;28;20032;-53
2022/03/14 02:34:26;;;;;;;47.58;20.27;;;-5.10;99.20;;;;;;4169724;28;20033;-50
2022/03/14 02:36:27;;;;;;;40.63;19.80;;;-5.10;99.90;;;;;;4174633;28;20033;-50
2022/03/14 02:38:28;;;;;;;49.85;19.88;;;-5.20;99.90;;;;;;4173695;28;20025;-60
2022/03/14 02:40:29;;;;;;;46.78;19.83;;;-5.20;99.90;;;;;;4171639;28;20041;-55
2022/03/14 02:42:31;;;;;;;41.05;19.52;;;-5.20;99.90;;;;;;4173912;28;20098;-55
2022/03/14 02:44:34;;;;;;;49.63;19.60;;;-5.20;99.70;;;;;;4173726;28;20103;-43
2022/03/14 02:46:37;;;;;;;51.53;22.23;;;-5.20;99.90;;;;;;4173532;28;20106;-59
2022/03/14 02:48:40;;;;;;;47.22;20.50;;;-5.10;99.90;;;;;;4173664;28;20086;-63
2022/03/14 02:50:42;;;;;;;40.85;18.80;;;-5.10;99.90;;;;;;4172676;28;20148;-48
2022/03/14 02:52:43;;;;;;;52.13;20.83;;;-5.10;99.90;;;;;;4173120;28;20110;-63
2022/03/14 02:54:44;;;;;;;43.95;21.85;;;-5.10;99.90;;;;;;4174877;28;20059;-59
2022/03/14 02:56:45;;;;;;;57.80;26.65;;;-5.10;99.90;;;;;;4173226;28;20104;-43
2022/03/14 02:58:54;;;;;;;53.97;27.17;;;-5.20;99.90;;;;;;4174221;28;20087;-53
2022/03/14 03:00:56;;;;;;;59.00;25.80;;;-5.20;99.90;;;;;;4172784;28;20485;-57
2022/03/14 03:02:58;;;;;;;46.53;22.80;;;-5.20;99.90;;;;;;4174609;28;21714;-52
2022/03/14 03:05:00;;;;;;;46.05;21.70;;;-5.30;99.90;;;;;;4171915;28;20033;-46
2022/03/14 03:07:02;;;;;;;45.65;21.77;;;-5.30;99.90;;;;;;4174041;28;20029;-62
2022/03/14 03:09:03;;;;;;;52.90;21.83;;;-5.30;99.90;;;;;;4173385;28;20028;-44
2022/03/14 03:11:08;;;;;;;48.67;20.90;;;-5.20;99.90;;;;;;4174363;28;20059;-65
2022/03/14 03:13:12;;;;;;;49.08;20.90;;;-5.20;99.90;;;;;;4173422;28;20079;-52
2022/03/14 03:15:15;;;;;;;50.28;21.05;;;-5.20;99.90;;;;;;4173688;28;20103;-66
2022/03/14 03:17:16;;;;;;;49.65;20.65;;;-5.20;99.90;;;;;;4146672;28;20092;-68
2022/03/14 03:19:18;;;;;;;43.75;20.67;;;-5.20;99.90;;;;;;4135701;28;20092;-58
2022/03/14 03:21:19;;;;;;;51.97;22.15;;;-5.20;99.90;;;;;;4139188;28;20053;-45
2022/03/14 03:23:21;;;;;;;57.95;23.10;;;-5.20;99.90;;;;;;4156511;28;20037;-54
2022/03/14 03:25:22;;;;;;;43.38;20.70;;;-5.20;99.90;;;;;;4157711;28;20092;-52
2022/03/14 03:27:24;;;;;;;47.83;20.27;;;-5.20;99.90;;;;;;4156262;28;20034;-56
2022/03/14 03:29:25;;;;;;;45.58;20.17;;;-5.20;99.90;;;;;;4156504;28;20037;-65
2022/03/14 03:31:28;;;;;;;41.83;19.08;;;-5.20;99.90;;;;;;4139068;28;20022;-49
2022/03/14 03:33:29;;;;;;;40.92;17.80;;;-5.20;99.90;;;;;;4157637;28;20091;-60
2022/03/14 03:35:30;;;;;;;43.15;17.13;;;-5.20;99.90;;;;;;4156558;28;20037;-47
2022/03/14 03:37:32;;;;;;;44.92;17.58;;;-5.30;99.90;;;;;;4157749;28;20033;-61
2022/03/14 03:39:33;;;;;;;44.83;17.52;;;-5.30;99.90;;;;;;4156256;28;20033;-54
2022/03/14 03:41:35;;;;;;;53.70;20.15;;;-5.20;99.90;;;;;;4157187;28;20095;-48
2022/03/14 03:43:36;;;;;;;42.72;18.83;;;-5.20;99.90;;;;;;4157757;28;20087;-53
2022/03/14 03:45:37;;;;;;;42.95;20.52;;;-5.20;99.90;;;;;;4156972;28;20473;-47
2022/03/14 03:47:38;;;;;;;53.85;19.90;;;-5.20;99.90;;;;;;4156706;28;20034;-49
2022/03/14 03:49:39;;;;;;;53.88;19.38;;;-5.30;99.90;;;;;;4156682;28;20038;-54
2022/03/14 03:51:40;;;;;;;53.85;20.45;;;-5.30;99.90;;;;;;4158894;28;20055;-62
2022/03/14 03:53:41;;;;;;;55.53;20.33;;;-5.40;99.90;;;;;;4159077;28;20041;-49
2022/03/14 03:55:43;;;;;;;54.40;22.52;;;-5.40;99.90;;;;;;4160873;28;20370;-61
2022/03/14 03:57:44;;;;;;;45.70;20.48;;;-5.40;99.90;;;;;;4141289;28;20042;-62
2022/03/14 03:59:45;;;;;;;51.20;19.83;;;-5.40;99.90;;;;;;4160944;28;20034;-44
2022/03/14 04:01:46;;;;;;;41.92;17.90;;;-5.40;99.90;;;;;;4159657;28;20801;-53
2022/03/14 04:03:49;;;;;;;52.20;21.90;;;-5.40;99.90;;;;;;4267022;23;20100;-46
2022/03/14 04:05:51;;;;;;;49.03;18.77;;;-5.40;99.90;;;;;;4159732;28;20072;-63
2022/03/14 04:07:54;;;;;;;43.55;18.90;;;-5.50;99.90;;;;;;4160291;28;20025;-42
2022/03/14 04:09:57;;;;;;;36.35;17.73;;;-5.50;99.90;;;;;;4159632;28;20075;-58
2022/03/14 04:11:58;;;;;;;47.58;17.83;;;-5.60;99.90;;;;;;4159789;28;20875;-50
2022/03/14 04:14:00;;;;;;;38.35;15.88;;;-5.70;99.90;;;;;;4159931;28;20064;-48
2022/03/14 04:16:02;;;;;;;38.13;16.45;;;-5.70;99.90;;;;;;4173943;28;20578;-55
2022/03/14 04:18:03;;;;;;;41.08;16.40;;;-5.80;99.90;;;;;;4176860;28;20032;-52
2022/03/14 04:20:06;;;;;;;38.45;16.10;;;-5.90;99.90;;;;;;4176167;28;20025;-74
2022/03/14 04:22:07;;;;;;;33.63;15.35;;;-6.00;99.90;;;;;;4176775;28;20075;-52
2022/03/14 04:24:08;;;;;;;33.70;14.52;;;-6.00;99.90;;;;;;4175884;28;20435;-46
2022/03/14 04:26:10;;;;;;;37.58;15.02;;;-6.10;99.90;;;;;;4177814;28;20094;-48
2022/03/14 04:28:12;;;;;;;31.30;14.55;;;-6.10;99.90;;;;;;4175834;28;20037;-73
2022/03/14 04:30:14;;;;;;;40.33;17.02;;;-6.10;99.90;;;;;;4158467;28;21048;-50
2022/03/14 04:32:16;;;;;;;46.83;17.55;;;-6.10;99.90;;;;;;4158238;28;20042;-57
2022/03/14 04:34:17;;;;;;;44.67;16.38;;;-6.10;99.90;;;;;;4170505;28;20091;-62
2022/03/14 04:36:18;;;;;;;37.25;16.45;;;-6.10;99.90;;;;;;4175671;28;20925;-58
2022/03/14 04:38:19;;;;;;;41.72;17.85;;;-6.10;99.90;;;;;;4175616;28;20032;-53
2022/03/14 04:40:21;;;;;;;46.38;17.23;;;-6.10;99.90;;;;;;4171171;28;20018;-58
2022/03/14 04:42:22;;;;;;;52.72;19.67;;;-6.10;99.90;;;;;;4159744;28;20449;-49
2022/03/14 04:44:23;;;;;;;51.80;19.85;;;-6.10;99.90;;;;;;4159424;28;20021;-44
2022/03/14 04:46:24;;;;;;;48.28;20.50;;;-6.10;99.90;;;;;;4168516;28;20087;-48
2022/03/14 04:48:25;;;;;;;49.67;22.02;;;-6.00;99.90;;;;;;4162495;28;20033;-50
2022/03/14 04:50:27;;;;;;;56.65;21.48;;;-6.00;99.90;;;;;;4158768;28;20029;-48
2022/03/14 04:52:29;;;;;;;54.63;22.00;;;-6.00;99.90;;;;;;4160099;28;20115;-64
2022/03/14 04:54:30;;;;;;;60.47;25.55;;;-5.90;99.90;;;;;;4158539;28;20064;-46
2022/03/14 04:56:31;;;;;;;54.83;24.25;;;-5.90;99.90;;;;;;4555678;23;20688;-62
2022/03/14 04:58:32;;;;;;;64.38;25.48;;;-5.70;99.90;;;;;;4159480;28;20559;-67
2022/03/14 05:00:34;;;;;;;63.17;26.58;;;-5.50;99.90;;;;;;4157957;28;20030;-59
2022/03/14 05:02:36;;;;;;;65.03;25.77;;;-5.30;99.90;;;;;;4158864;28;20072;-68
2022/03/14 05:04:38;;;;;;;68.25;26.42;;;-5.00;99.90;;;;;;4158159;28;20563;-59
2022/03/14 05:06:40;;;;;;;47.55;21.80;;;-4.80;99.90;;;;;;4159715;28;20021;-54
2022/03/14 05:08:42;;;;;;;56.35;23.63;;;-4.40;99.90;;;;;;4158190;28;20091;-60
2022/03/14 05:10:43;;;;;;;51.33;23.10;;;-4.20;99.90;;;;;;4159611;28;20033;-65
2022/03/14 05:12:44;;;;;;;55.65;24.52;;;-3.90;99.90;;;;;;4158228;28;20429;-62
2022/03/14 05:14:45;;;;;;;54.45;24.45;;;-3.70;99.90;;;;;;4158958;28;20029;-61
2022/03/14 05:16:48;;;;;;;58.78;25.85;;;-3.40;99.90;;;;;;4157640;28;20029;-63
2022/03/14 05:18:50;;;;;;;55.33;23.00;;;-3.20;99.90;;;;;;4159494;28;20029;-52
2022/03/14 05:20:51;;;;;;;53.65;23.50;;;-3.00;99.80;;;;;;4158352;28;20033;-60
2022/03/14 05:22:53;;;;;;;47.47;21.92;;;-2.90;99.60;;;;;;4158427;28;20033;-53
2022/03/14 05:24:54;;;;;;;40.67;19.83;;;-2.80;99.40;;;;;;4140232;28;20580;-90
2022/03/14 05:26:58;;;;;;;46.50;19.98;;;-2.70;99.10;;;;;;4158419;28;20041;-54
2022/03/14 05:28:59;;;;;;;50.22;19.83;;;-2.60;98.70;;;;;;4140464;28;20034;-59
2022/03/14 05:31:00;;;;;;;46.70;20.48;;;-2.50;98.50;;;;;;4155726;28;20497;-49
2022/03/14 05:33:01;;;;;;;44.95;20.40;;;-2.40;98.40;;;;;;4158870;28;20087;-58
2022/03/14 05:35:03;;;;;;;48.40;20.65;;;-2.30;98.10;;;;;;4158059;28;20115;-54
2022/03/14 05:37:04;;;;;;;42.95;20.33;;;-2.20;97.90;;;;;;4159003;28;20106;-64
2022/03/14 05:39:06;;;;;;;48.70;21.77;;;-2.00;97.80;;;;;;4157387;28;20481;-68
2022/03/14 05:41:07;;;;;;;57.83;23.97;;;-1.50;97.80;;;;;;4158499;28;20049;-63
2022/03/14 05:43:12;;;;;;;59.20;24.70;;;-1.20;96.60;;;;;;4154905;28;20387;-62
2022/03/14 05:45:14;;;;;;;59.97;23.10;;;-0.80;96.90;;;;;;4158704;28;20290;-64
2022/03/14 05:47:15;;;;;;;55.13;25.67;;;-0.20;96.40;;;;;;4153469;28;20283;-60
2022/03/14 05:49:16;;;;;;;68.83;23.33;;;0.10;95.40;;;;;;4159003;28;20310;-56
2022/03/14 05:51:17;;;;;;;55.47;23.37;;;0.70;95.00;;;;;;4156067;28;20317;-50
2022/03/14 05:53:18;;;;;;;69.60;24.50;;;1.30;94.30;;;;;;4158024;28;20364;-67
2022/03/14 05:55:19;;;;;;;67.53;26.70;;;2.00;92.50;;;;;;4150354;28;20286;-46
2022/03/14 05:57:21;;;;;;;61.73;26.00;;;2.20;90.80;;;;;;4159975;28;20353;-66
2022/03/14 05:59:22;;;;;;;63.57;26.40;;;2.30;90.50;;;;;;4145176;28;20325;-66
2022/03/14 06:01:24;;;;;;;63.50;25.70;;;2.70;90.30;;;;;;4156842;28;20658;-64
2022/03/14 06:03:25;;;;;;;56.57;25.37;;;2.90;88.50;;;;;;4158006;28;20278;-54
2022/03/14 06:05:26;;;;;;;76.90;26.90;;;3.00;87.20;;;;;;4140104;28;20284;-57
2022/03/14 06:07:27;;;;;;;68.80;26.63;;;3.20;86.40;;;;;;4157870;28;20275;-66
2022/03/14 06:09:29;;;;;;;69.73;25.83;;;3.50;86.20;;;;;;4155194;28;20875;-62
2022/03/14 06:11:31;;;;;;;65.60;25.47;;;3.90;86.00;;;;;;4156755;28;20759;-55
2022/03/14 06:13:32;;;;;;;61.73;26.40;;;4.20;83.20;;;;;;4155847;28;20275;-58
2022/03/14 06:15:33;;;;;;;57.77;25.40;;;4.40;83.40;;;;;;4157575;28;20769;-53
2022/03/14 06:17:34;;;;;;;71.43;25.73;;;4.70;81.40;;;;;;4156241;28;20321;-63
2022/03/14 06:19:36;;;;;;;62.17;25.10;;;4.70;78.90;;;;;;4155326;28;20275;-47
2022/03/14 06:21:38;;;;;;;59.17;24.03;;;4.10;77.70;;;;;;4155038;28;20484;-60
2022/03/14 06:23:40;;;;;;;59.27;26.97;;;3.90;79.60;;;;;;4157905;28;20394;-59
2022/03/14 06:25:41;;;;;;;58.00;24.60;;;4.10;78.90;;;;;;4157345;28;20263;-65
2022/03/14 06:27:42;;;;;;;69.60;26.30;;;4.40;77.70;;;;;;4157927;28;20333;-50
2022/03/14 06:29:44;;;;;;;55.97;24.67;;;4.40;76.80;;;;;;4158113;28;20278;-64
2022/03/14 06:31:45;;;;;;;61.57;26.27;;;4.50;76.80;;;;;;4158254;28;20278;-43
2022/03/14 06:33:49;;;;;;;61.10;26.33;;;5.00;76.10;;;;;;4158234;28;20324;-48
2022/03/14 06:35:51;;;;;;;60.67;25.13;;;5.20;74.40;;;;;;4157008;28;20313;-56
2022/03/14 06:37:52;;;;;;;56.20;26.03;;;5.70;73.40;;;;;;4158298;28;21203;-54
2022/03/14 06:39:53;;;;;;;53.03;23.43;;;5.90;72.80;;;;;;4156478;28;20266;-58
2022/03/14 06:41:54;;;;;;;55.17;24.17;;;6.10;71.80;;;;;;4157779;28;20348;-59
2022/03/14 06:43:57;;;;;;;62.00;25.90;;;6.00;71.30;;;;;;4155683;28;20329;-50
2022/03/14 06:45:58;;;;;;;60.13;25.80;;;5.90;71.20;;;;;;4158144;28;20271;-52
2022/03/14 06:48:01;;;;;;;52.20;25.33;;;5.70;71.10;;;;;;4138344;28;20389;-49
2022/03/14 06:50:03;;;;;;;49.93;25.13;;;5.60;71.20;;;;;;4157732;28;20805;-43
2022/03/14 06:52:04;;;;;;;54.63;24.43;;;5.70;71.20;;;;;;4155957;28;20344;-67
2022/03/14 06:54:06;;;;;;;76.20;29.37;;;5.90;70.60;;;;;;4157902;28;20275;-44
2022/03/14 06:56:07;;;;;;;56.73;24.47;;;6.00;70.30;;;;;;4156599;28;20662;-58
2022/03/14 06:58:09;;;;;;;50.97;23.80;;;6.20;69.70;;;;;;4157448;28;20649;-46
2022/03/14 07:00:11;;;;;;;57.27;25.73;;;6.30;69.30;;;;;;4156450;28;20824;-54
2022/03/14 07:02:12;;;;;;;54.03;24.97;;;6.40;69.50;;;;;;4138775;28;20350;-63
2022/03/14 07:04:14;;;;;;;53.97;25.10;;;6.20;69.00;;;;;;4157200;28;20274;-61
2022/03/14 07:06:15;;;;;;;53.67;23.93;;;6.20;69.10;;;;;;4155723;28;20377;-60
2022/03/14 07:08:17;;;;;;;44.00;21.27;;;6.00;69.10;;;;;;4157215;28;20270;-69
2022/03/14 07:10:19;;;;;;;55.90;23.47;;;5.50;69.30;;;;;;4155973;28;20736;-46
2022/03/14 07:12:20;;;;;;;42.37;21.20;;;5.10;70.00;;;;;;4156604;28;20355;-63
2022/03/14 07:14:22;;;;;;;59.87;21.73;;;4.90;70.30;;;;;;4155971;28;20769;-63
2022/03/14 07:16:23;;;;;;;47.43;20.77;;;4.80;70.90;;;;;;4157793;28;20333;-57
2022/03/14 07:18:25;;;;;;;36.20;19.63;;;5.10;71.00;;;;;;4156366;28;20278;-57
2022/03/14 07:20:26;;;;;;;40.80;19.93;;;5.30;70.20;;;;;;4157469;28;20356;-46
2022/03/14 07:22:28;;;;;;;40.47;20.40;;;5.10;69.90;;;;;;4155124;28;20299;-70
2022/03/14 07:24:29;;;;;;;37.20;18.47;;;5.40;70.10;;;;;;4157521;28;20674;-63
2022/03/14 07:26:30;;;;;;;43.97;19.67;;;6.00;69.30;;;;;;4156032;28;20324;-77
2022/03/14 07:28:33;;;;;;;36.97;18.50;;;6.20;68.10;;;;;;4157264;28;20639;-52
2022/03/14 07:30:35;;;;;;;40.63;21.07;;;6.30;67.80;;;;;;4156228;28;20312;-67
2022/03/14 07:32:36;;;;;;;41.47;19.27;;;6.10;68.20;;;;;;4168374;23;20332;-57
2022/03/14 07:34:37;;;;;;;42.00;20.20;;;6.40;68.60;;;;;;4156881;28;20329;-56
2022/03/14 07:36:42;;;;;;;40.07;21.50;;;6.70;68.20;;;;;;4156449;28;20328;-59
2022/03/14 07:38:43;;;;;;;40.07;19.63;;;7.00;67.90;;;;;;4157390;28;20270;-66
2022/03/14 07:40:45;;;;;;;39.07;17.17;;;6.40;66.90;;;;;;4137871;28;20268;-62
2022/03/14 07:42:50;;;;;;;40.33;16.90;;;6.00;67.40;;;;;;4156394;28;20294;-53
2022/03/14 07:44:51;;;;;;;37.80;16.87;;;5.70;67.70;;;;;;4155519;28;20266;-59
2022/03/14 07:46:52;;;;;;;35.77;17.50;;;5.60;68.00;;;;;;4157173;28;20265;-69
2022/03/14 07:48:53;;;;;;;34.00;15.87;;;5.50;67.90;;;;;;4154547;28;20329;-59
2022/03/14 07:50:54;;;;;;;39.03;18.03;;;5.60;68.00;;;;;;4156385;28;20278;-64
2022/03/14 07:52:56;;;;;;;34.53;16.73;;;5.60;68.00;;;;;;4155799;28;20313;-62
2022/03/14 07:54:57;;;;;;;40.73;18.67;;;5.60;67.40;;;;;;4156771;28;20255;-53
2022/03/14 07:56:59;;;;;;;42.27;19.07;;;5.40;66.80;;;;;;4156068;28;20251;-59
2022/03/14 07:59:00;;;;;;;45.47;18.97;;;5.10;68.00;;;;;;4155988;28;20324;-54
2022/03/14 08:01:01;;;;;;;37.23;18.77;;;4.90;68.70;;;;;;4156452;28;20243;-49
2022/03/14 08:03:02;;;;;;;45.20;20.10;;;4.90;69.10;;;;;;4138692;28;20353;-56
2022/03/14 08:05:08;;;;;;;50.30;19.90;;;5.10;69.10;;;;;;4156859;28;20320;-55
2022/03/14 08:07:09;;;;;;;40.53;19.00;;;5.10;68.40;;;;;;4155666;28;20247;-46
2022/03/14 08:09:10;;;;;;;44.03;20.60;;;5.00;68.90;;;;;;4138818;28;20314;-59
2022/03/14 08:11:12;;;;;;;53.17;20.57;;;5.40;68.80;;;;;;4155730;28;20274;-48
2022/03/14 08:13:13;;;;;;;44.83;20.37;;;5.80;68.30;;;;;;4156964;28;20267;-58
2022/03/14 08:15:23;;;;;;;44.00;20.37;;;6.00;67.40;;;;;;4137557;28;20306;-66
2022/03/14 08:17:24;;;;;;;45.03;18.70;;;5.70;67.00;;;;;;4156600;28;20320;-45
2022/03/14 08:19:25;;;;;;;43.30;21.17;;;5.20;67.90;;;;;;4137893;28;20322;-73
2022/03/14 08:21:28;;;;;;;49.23;20.07;;;4.90;68.70;;;;;;4156871;28;20337;-51
2022/03/14 08:23:30;;;;;;;39.70;18.93;;;4.90;69.10;;;;;;4156002;28;20709;-53
2022/03/14 08:25:34;;;;;;;33.70;16.43;;;5.20;69.20;;;;;;4157320;28;20342;-70
2022/03/14 08:27:35;;;;;;;32.30;15.47;;;5.60;68.70;;;;;;4155448;28;20328;-71
2022/03/14 08:29:36;;;;;;;32.17;16.80;;;5.80;67.40;;;;;;4156893;28;20263;-59
2022/03/14 08:31:38;;;;;;;31.90;14.73;;;5.80;67.10;;;;;;4155562;28;20251;-64
2022/03/14 08:33:41;;;;;;;26.07;14.10;;;5.60;66.60;;;;;;4156545;28;20291;-61
2022/03/14 08:35:44;;;;;;;29.07;14.13;;;5.40;66.40;;;;;;4155741;28;20270;-53
2022/03/14 08:37:46;;;;;;;27.07;13.83;;;5.30;66.20;;;;;;4157092;28;20267;-72
2022/03/14 08:39:47;;;;;;;19.97;10.60;;;5.70;66.20;;;;;;4158527;28;20308;-49
2022/03/14 08:41:49;;;;;;;21.63;11.40;;;5.30;64.50;;;;;;4158656;28;21448;-65
2022/03/14 08:43:50;;;;;;;24.80;14.03;;;5.40;65.20;;;;;;4159579;28;20400;-57
2022/03/14 08:45:51;;;;;;;23.53;12.50;;;5.70;65.50;;;;;;4158656;28;20266;-60
2022/03/14 08:47:53;;;;;;;31.70;13.77;;;5.80;65.20;;;;;;4141272;28;20804;-64
2022/03/14 08:49:54;;;;;;;23.57;13.20;;;6.00;64.90;;;;;;4157862;28;20333;-54
2022/03/14 08:51:55;;;;;;;30.73;15.13;;;5.90;63.70;;;;;;4159178;28;20267;-54
2022/03/14 08:53:56;;;;;;;34.23;14.97;;;5.60;63.90;;;;;;4157336;28;20337;-54
2022/03/14 08:56:00;;;;;;;25.83;14.30;;;5.50;64.80;;;;;;4159625;28;20266;-63
2022/03/14 08:58:03;;;;;;;29.07;14.30;;;5.50;64.60;;;;;;4158192;28;20320;-67
2022/03/14 09:00:06;;;;;;;46.00;15.30;;;5.40;64.10;;;;;;4159766;28;20259;-51
2022/03/14 09:02:09;;;;;;;35.67;15.73;;;5.50;64.70;;;;;;4139859;28;20272;-50
2022/03/14 09:04:10;;;;;;;31.37;16.17;;;5.70;65.10;;;;;;4159398;28;20321;-60
2022/03/14 09:06:11;;;;;;;32.97;14.60;;;5.60;64.70;;;;;;4157890;28;20275;-56
2022/03/14 09:08:12;;;;;;;25.70;13.60;;;5.60;64.70;;;;;;4140582;28;20272;-67
2022/03/14 09:10:15;;;;;;;32.20;14.67;;;5.70;64.40;;;;;;4158744;28;20262;-57
2022/03/14 09:12:16;;;;;;;24.77;12.43;;;5.80;64.70;;;;;;4158845;28;20255;-50
2022/03/14 09:14:18;;;;;;;22.97;12.37;;;5.70;63.90;;;;;;4158606;28;21357;-45
2022/03/14 09:16:20;;;;;;;23.03;12.53;;;5.60;63.90;;;;;;4157850;28;20346;-66
2022/03/14 09:18:21;;;;;;;27.60;13.03;;;5.60;64.30;;;;;;4159419;28;20262;-49
2022/03/14 09:20:23;;;;;;;23.27;12.27;;;5.60;64.00;;;;;;4157559;28;20368;-55
2022/03/14 09:22:24;;;;;;;21.90;10.53;;;5.90;64.10;;;;;;4158315;28;20274;-63
2022/03/14 09:24:26;;;;;;;22.50;11.67;;;6.00;63.70;;;;;;4156960;28;20333;-65
2022/03/14 09:26:28;;;;;;;24.83;11.43;;;6.00;63.50;;;;;;4140217;28;20341;-64
2022/03/14 09:28:29;;;;;;;25.43;12.50;;;6.10;63.50;;;;;;4157549;28;20616;-57
2022/03/14 09:30:30;;;;;;;24.10;12.30;;;6.40;63.50;;;;;;4157684;28;20283;-56
2022/03/14 09:32:31;;;;;;;25.43;13.23;;;6.40;63.20;;;;;;4157726;28;20283;-60
2022/03/14 09:34:37;;;;;;;27.60;13.20;;;6.50;63.50;;;;;;4159079;28;20674;-50
2022/03/14 09:36:38;;;;;;;26.10;13.13;;;6.60;63.60;;;;;;4157456;28;20697;-66
2022/03/14 09:38:39;;;;;;;21.17;12.30;;;6.70;63.20;;;;;;4140331;28;20333;-52
2022/03/14 09:40:43;;;;;;;42.77;18.50;;;6.60;62.60;;;;;;4157957;28;20385;-51
2022/03/14 09:42:46;;;;;;;32.40;13.90;;;6.60;62.80;;;;;;4159045;28;21107;-51
2022/03/14 09:44:53;;;;;;;21.13;11.60;;;6.70;62.80;;;;;;4161537;28;20266;-58
2022/03/14 09:46:56;;;;;;;19.50;11.47;;;6.90;62.60;;;;;;4156706;28;20266;-55
2022/03/14 09:48:58;;;;;;;21.73;11.80;;;7.00;61.90;;;;;;4158039;28;20263;-49
2022/03/14 09:51:00;;;;;;;22.17;11.67;;;7.00;61.10;;;;;;4157873;28;20029;-65
2022/03/14 09:53:06;;;;;;;22.03;12.03;;;7.10;61.50;;;;;;4158486;28;20282;-51
2022/03/14 09:55:09;;;;;;;20.83;10.70;;;7.30;61.10;;;;;;4157044;28;20297;-60
2022/03/14 09:57:10;;;;;;;28.53;12.17;;;7.50;60.50;;;;;;4158355;28;21013;-66
2022/03/14 09:59:12;;;;;;;23.70;11.90;;;7.70;60.20;;;;;;4157303;28;20259;-78
2022/03/14 10:01:14;;;;;;;21.57;10.87;;;7.40;60.10;;;;;;4140056;28;20046;-49
2022/03/14 10:03:16;;;;;;;21.50;10.97;;;7.60;60.30;;;;;;4157635;28;20045;-52
2022/03/14 10:05:18;;;;;;;21.60;11.33;;;7.70;60.50;;;;;;4157707;28;20099;-59
2022/03/14 10:07:21;;;;;;;21.07;10.17;;;7.70;60.20;;;;;;4156315;28;20295;-66
2022/03/14 10:09:22;;;;;;;17.00;9.43;;;7.70;59.80;;;;;;4158300;28;20750;-60
2022/03/14 10:13:35;;;;;;;17.13;9.40;;;7.80;58.80;;;;;;4504725;23;20091;-57
2022/03/14 10:15:40;;;;;;;17.63;10.10;;;7.90;58.80;;;;;;4155986;28;20297;-60
2022/03/14 10:17:41;;;;;;;22.73;10.40;;;7.80;58.50;;;;;;4157128;28;20049;-58
2022/03/14 10:19:57;;;;;;;20.70;10.77;;;7.90;58.90;;;;;;4155579;28;20030;-58
2022/03/14 10:22:14;;;;;;;18.30;9.97;;;7.90;58.30;;;;;;4157280;28;20041;-57